sensor_id;sensor_type;location;lat;lon;timestamp;P1;durP1;ratioP1;P2;durP2;ratioP2
71038;SDS011;58692;43.212;27.908;2022-12-18T00:00:27;8.63;;;4.10;;
71038;SDS011;58692;43.212;27.908;2022-12-18T00:02:53;9.77;;;3.97;;
71038;SDS011;58692;43.212;27.908;2022-12-18T00:05:18;8.13;;;3.80;;
71038;SDS011;58692;43.212;27.908;2022-12-18T00:07:43;9.67;;;3.47;;
71038;SDS011;58692;43.212;27.908;2022-12-18T00:10:09;7.97;;;3.10;;
71038;SDS011;58692;43.212;27.908;2022-12-18T00:12:34;6.80;;;2.63;;
71038;SDS011;58692;43.212;27.908;2022-12-18T00:15:00;6.03;;;2.80;;
71038;SDS011;58692;43.212;27.908;2022-12-18T00:17:25;7.10;;;3.07;;
71038;SDS011;58692;43.212;27.908;2022-12-18T00:19:51;7.23;;;3.13;;
71038;SDS011;58692;43.212;27.908;2022-12-18T00:22:17;7.15;;;2.90;;
71038;SDS011;58692;43.212;27.908;2022-12-18T00:24:43;6.28;;;2.67;;
71038;SDS011;58692;43.212;27.908;2022-12-18T00:27:08;5.73;;;2.60;;
71038;SDS011;58692;43.212;27.908;2022-12-18T00:29:34;7.03;;;2.97;;
71038;SDS011;58692;43.212;27.908;2022-12-18T00:31:59;7.63;;;3.17;;
71038;SDS011;58692;43.212;27.908;2022-12-18T00:34:25;6.68;;;2.90;;
71038;SDS011;58692;43.212;27.908;2022-12-18T00:36:50;7.80;;;3.00;;
71038;SDS011;58692;43.212;27.908;2022-12-18T00:39:15;8.10;;;3.30;;
71038;SDS011;58692;43.212;27.908;2022-12-18T00:41:41;9.18;;;3.10;;
71038;SDS011;58692;43.212;27.908;2022-12-18T00:44:22;5.77;;;2.70;;
71038;SDS011;58692;43.212;27.908;2022-12-18T00:46:47;6.43;;;3.05;;
71038;SDS011;58692;43.212;27.908;2022-12-18T00:49:13;7.03;;;4.00;;
71038;SDS011;58692;43.212;27.908;2022-12-18T00:51:40;7.28;;;3.08;;
71038;SDS011;58692;43.212;27.908;2022-12-18T00:54:06;8.07;;;3.40;;
71038;SDS011;58692;43.212;27.908;2022-12-18T00:56:32;7.17;;;3.20;;
71038;SDS011;58692;43.212;27.908;2022-12-18T00:58:57;7.83;;;3.37;;
71038;SDS011;58692;43.212;27.908;2022-12-18T01:01:22;8.38;;;3.60;;
71038;SDS011;58692;43.212;27.908;2022-12-18T01:03:48;6.73;;;3.37;;
71038;SDS011;58692;43.212;27.908;2022-12-18T01:06:14;6.93;;;3.13;;
71038;SDS011;58692;43.212;27.908;2022-12-18T01:08:41;6.10;;;2.60;;
71038;SDS011;58692;43.212;27.908;2022-12-18T01:11:08;7.45;;;2.80;;
71038;SDS011;58692;43.212;27.908;2022-12-18T01:13:35;6.88;;;3.03;;
71038;SDS011;58692;43.212;27.908;2022-12-18T01:16:01;7.37;;;3.20;;
71038;SDS011;58692;43.212;27.908;2022-12-18T01:18:26;7.07;;;2.87;;
71038;SDS011;58692;43.212;27.908;2022-12-18T01:20:52;7.57;;;3.03;;
71038;SDS011;58692;43.212;27.908;2022-12-18T01:23:17;7.47;;;3.10;;
71038;SDS011;58692;43.212;27.908;2022-12-18T01:25:43;6.83;;;3.10;;
71038;SDS011;58692;43.212;27.908;2022-12-18T01:28:08;7.05;;;2.95;;
71038;SDS011;58692;43.212;27.908;2022-12-18T01:30:33;7.17;;;3.30;;
71038;SDS011;58692;43.212;27.908;2022-12-18T01:32:59;7.47;;;3.47;;
71038;SDS011;58692;43.212;27.908;2022-12-18T01:35:24;7.27;;;2.87;;
71038;SDS011;58692;43.212;27.908;2022-12-18T01:37:53;6.30;;;2.67;;
71038;SDS011;58692;43.212;27.908;2022-12-18T01:40:19;7.33;;;2.70;;
71038;SDS011;58692;43.212;27.908;2022-12-18T01:42:45;7.63;;;3.20;;
71038;SDS011;58692;43.212;27.908;2022-12-18T01:50:24;8.18;;;3.15;;
71038;SDS011;58692;43.212;27.908;2022-12-18T01:53:15;6.65;;;2.97;;
71038;SDS011;58692;43.212;27.908;2022-12-18T01:55:46;6.95;;;2.88;;
71038;SDS011;58692;43.212;27.908;2022-12-18T01:58:14;6.37;;;2.50;;
71038;SDS011;58692;43.212;27.908;2022-12-18T02:00:40;7.60;;;3.30;;
71038;SDS011;58692;43.212;27.908;2022-12-18T02:03:06;6.10;;;2.78;;
71038;SDS011;58692;43.212;27.908;2022-12-18T02:08:34;8.05;;;2.88;;
71038;SDS011;58692;43.212;27.908;2022-12-18T02:11:15;7.43;;;3.05;;
71038;SDS011;58692;43.212;27.908;2022-12-18T02:13:50;7.37;;;3.10;;
71038;SDS011;58692;43.212;27.908;2022-12-18T02:19:20;8.50;;;3.60;;
71038;SDS011;58692;43.212;27.908;2022-12-18T02:22:11;8.00;;;3.38;;
71038;SDS011;58692;43.212;27.908;2022-12-18T02:27:31;7.57;;;3.00;;
71038;SDS011;58692;43.212;27.908;2022-12-18T02:29:59;6.68;;;3.15;;
71038;SDS011;58692;43.212;27.908;2022-12-18T02:32:31;7.22;;;3.00;;
71038;SDS011;58692;43.212;27.908;2022-12-18T02:35:00;7.75;;;3.53;;
71038;SDS011;58692;43.212;27.908;2022-12-18T02:37:28;7.68;;;3.65;;
71038;SDS011;58692;43.212;27.908;2022-12-18T02:39:56;7.07;;;3.30;;
71038;SDS011;58692;43.212;27.908;2022-12-18T02:42:23;9.25;;;3.42;;
71038;SDS011;58692;43.212;27.908;2022-12-18T02:44:50;8.20;;;3.17;;
71038;SDS011;58692;43.212;27.908;2022-12-18T02:47:17;9.43;;;3.95;;
71038;SDS011;58692;43.212;27.908;2022-12-18T02:49:52;9.63;;;3.90;;
71038;SDS011;58692;43.212;27.908;2022-12-18T02:52:35;8.93;;;4.50;;
71038;SDS011;58692;43.212;27.908;2022-12-18T02:58:18;7.18;;;3.33;;
71038;SDS011;58692;43.212;27.908;2022-12-18T03:00:53;7.75;;;3.45;;
71038;SDS011;58692;43.212;27.908;2022-12-18T03:03:28;6.68;;;2.80;;
71038;SDS011;58692;43.212;27.908;2022-12-18T03:06:01;6.70;;;3.03;;
71038;SDS011;58692;43.212;27.908;2022-12-18T03:08:33;8.32;;;3.25;;
71038;SDS011;58692;43.212;27.908;2022-12-18T03:11:05;6.93;;;3.05;;
71038;SDS011;58692;43.212;27.908;2022-12-18T03:13:39;7.10;;;3.20;;
71038;SDS011;58692;43.212;27.908;2022-12-18T03:16:06;8.13;;;3.22;;
71038;SDS011;58692;43.212;27.908;2022-12-18T03:18:36;9.23;;;3.33;;
71038;SDS011;58692;43.212;27.908;2022-12-18T03:21:07;8.60;;;3.42;;
71038;SDS011;58692;43.212;27.908;2022-12-18T03:23:38;9.30;;;3.45;;
71038;SDS011;58692;43.212;27.908;2022-12-18T03:26:07;7.25;;;3.30;;
71038;SDS011;58692;43.212;27.908;2022-12-18T03:28:37;8.77;;;3.72;;
71038;SDS011;58692;43.212;27.908;2022-12-18T03:31:07;7.53;;;3.43;;
71038;SDS011;58692;43.212;27.908;2022-12-18T03:36:05;8.82;;;3.55;;
71038;SDS011;58692;43.212;27.908;2022-12-18T03:38:31;7.60;;;3.47;;
71038;SDS011;58692;43.212;27.908;2022-12-18T03:40:59;10.50;;;4.20;;
71038;SDS011;58692;43.212;27.908;2022-12-18T03:43:31;10.05;;;3.67;;
71038;SDS011;58692;43.212;27.908;2022-12-18T03:46:16;8.25;;;3.42;;
71038;SDS011;58692;43.212;27.908;2022-12-18T03:48:52;7.07;;;3.20;;
71038;SDS011;58692;43.212;27.908;2022-12-18T03:51:30;6.90;;;3.17;;
71038;SDS011;58692;43.212;27.908;2022-12-18T03:54:04;7.70;;;3.10;;
71038;SDS011;58692;43.212;27.908;2022-12-18T03:56:36;7.30;;;3.30;;
71038;SDS011;58692;43.212;27.908;2022-12-18T03:59:05;7.53;;;3.17;;
71038;SDS011;58692;43.212;27.908;2022-12-18T04:01:34;7.93;;;3.40;;
71038;SDS011;58692;43.212;27.908;2022-12-18T04:04:04;7.60;;;3.33;;
71038;SDS011;58692;43.212;27.908;2022-12-18T04:06:32;7.22;;;3.45;;
71038;SDS011;58692;43.212;27.908;2022-12-18T04:08:58;7.25;;;3.35;;
71038;SDS011;58692;43.212;27.908;2022-12-18T04:11:24;8.20;;;3.00;;
71038;SDS011;58692;43.212;27.908;2022-12-18T04:13:50;7.28;;;3.13;;
71038;SDS011;58692;43.212;27.908;2022-12-18T04:16:20;8.30;;;2.95;;
71038;SDS011;58692;43.212;27.908;2022-12-18T04:18:45;7.57;;;3.40;;
71038;SDS011;58692;43.212;27.908;2022-12-18T04:21:10;7.50;;;3.00;;
71038;SDS011;58692;43.212;27.908;2022-12-18T04:23:36;8.80;;;3.08;;
71038;SDS011;58692;43.212;27.908;2022-12-18T04:26:01;9.87;;;3.50;;
71038;SDS011;58692;43.212;27.908;2022-12-18T04:28:27;7.80;;;3.10;;
71038;SDS011;58692;43.212;27.908;2022-12-18T04:30:52;8.23;;;3.53;;
71038;SDS011;58692;43.212;27.908;2022-12-18T04:33:18;7.65;;;3.20;;
71038;SDS011;58692;43.212;27.908;2022-12-18T04:35:43;8.97;;;3.30;;
71038;SDS011;58692;43.212;27.908;2022-12-18T04:38:09;7.28;;;3.40;;
71038;SDS011;58692;43.212;27.908;2022-12-18T04:40:36;7.82;;;3.55;;
71038;SDS011;58692;43.212;27.908;2022-12-18T04:43:02;10.63;;;4.50;;
71038;SDS011;58692;43.212;27.908;2022-12-18T04:45:29;10.30;;;4.15;;
71038;SDS011;58692;43.212;27.908;2022-12-18T04:47:56;11.43;;;4.82;;
71038;SDS011;58692;43.212;27.908;2022-12-18T04:50:24;9.85;;;4.60;;
71038;SDS011;58692;43.212;27.908;2022-12-18T04:52:49;9.63;;;4.50;;
71038;SDS011;58692;43.212;27.908;2022-12-18T04:55:15;11.80;;;5.07;;
71038;SDS011;58692;43.212;27.908;2022-12-18T04:57:41;9.80;;;4.40;;
71038;SDS011;58692;43.212;27.908;2022-12-18T05:00:06;11.10;;;4.87;;
71038;SDS011;58692;43.212;27.908;2022-12-18T05:02:32;10.80;;;4.93;;
71038;SDS011;58692;43.212;27.908;2022-12-18T05:04:58;13.35;;;6.00;;
71038;SDS011;58692;43.212;27.908;2022-12-18T05:07:23;12.43;;;5.20;;
71038;SDS011;58692;43.212;27.908;2022-12-18T05:09:49;11.77;;;5.45;;
71038;SDS011;58692;43.212;27.908;2022-12-18T05:12:15;12.60;;;5.27;;
71038;SDS011;58692;43.212;27.908;2022-12-18T05:14:41;11.30;;;5.23;;
71038;SDS011;58692;43.212;27.908;2022-12-18T05:17:06;12.27;;;5.30;;
71038;SDS011;58692;43.212;27.908;2022-12-18T05:19:31;10.30;;;4.70;;
71038;SDS011;58692;43.212;27.908;2022-12-18T05:21:57;12.40;;;5.20;;
71038;SDS011;58692;43.212;27.908;2022-12-18T05:24:23;10.27;;;4.85;;
71038;SDS011;58692;43.212;27.908;2022-12-18T05:26:48;14.17;;;6.03;;
71038;SDS011;58692;43.212;27.908;2022-12-18T05:29:14;13.30;;;5.88;;
71038;SDS011;58692;43.212;27.908;2022-12-18T05:31:39;12.83;;;5.73;;
71038;SDS011;58692;43.212;27.908;2022-12-18T05:34:05;13.07;;;6.17;;
71038;SDS011;58692;43.212;27.908;2022-12-18T05:36:31;14.93;;;6.50;;
71038;SDS011;58692;43.212;27.908;2022-12-18T05:38:56;13.47;;;6.30;;
71038;SDS011;58692;43.212;27.908;2022-12-18T05:41:22;15.80;;;7.15;;
71038;SDS011;58692;43.212;27.908;2022-12-18T05:43:47;14.20;;;7.00;;
71038;SDS011;58692;43.212;27.908;2022-12-18T05:46:15;15.53;;;7.13;;
71038;SDS011;58692;43.212;27.908;2022-12-18T05:48:42;16.63;;;7.47;;
71038;SDS011;58692;43.212;27.908;2022-12-18T05:51:10;17.55;;;7.70;;
71038;SDS011;58692;43.212;27.908;2022-12-18T05:53:39;16.10;;;7.03;;
71038;SDS011;58692;43.212;27.908;2022-12-18T05:56:06;17.92;;;7.28;;
71038;SDS011;58692;43.212;27.908;2022-12-18T05:58:33;18.43;;;7.80;;
71038;SDS011;58692;43.212;27.908;2022-12-18T06:01:05;17.20;;;8.02;;
71038;SDS011;58692;43.212;27.908;2022-12-18T06:03:32;18.90;;;8.70;;
71038;SDS011;58692;43.212;27.908;2022-12-18T06:05:57;17.73;;;7.90;;
71038;SDS011;58692;43.212;27.908;2022-12-18T06:08:23;16.80;;;8.17;;
71038;SDS011;58692;43.212;27.908;2022-12-18T06:10:50;18.30;;;8.20;;
71038;SDS011;58692;43.212;27.908;2022-12-18T06:13:17;18.50;;;8.48;;
71038;SDS011;58692;43.212;27.908;2022-12-18T06:15:43;18.40;;;8.67;;
71038;SDS011;58692;43.212;27.908;2022-12-18T06:18:08;16.92;;;8.23;;
71038;SDS011;58692;43.212;27.908;2022-12-18T06:20:34;19.60;;;9.07;;
71038;SDS011;58692;43.212;27.908;2022-12-18T06:23:01;22.42;;;10.27;;
71038;SDS011;58692;43.212;27.908;2022-12-18T06:25:27;18.77;;;9.23;;
71038;SDS011;58692;43.212;27.908;2022-12-18T06:27:53;16.60;;;8.32;;
71038;SDS011;58692;43.212;27.908;2022-12-18T06:30:18;17.10;;;8.97;;
71038;SDS011;58692;43.212;27.908;2022-12-18T06:32:44;21.05;;;9.80;;
71038;SDS011;58692;43.212;27.908;2022-12-18T06:35:10;20.63;;;9.80;;
71038;SDS011;58692;43.212;27.908;2022-12-18T06:37:35;20.23;;;9.48;;
71038;SDS011;58692;43.212;27.908;2022-12-18T06:40:01;19.90;;;9.70;;
71038;SDS011;58692;43.212;27.908;2022-12-18T06:42:26;17.20;;;8.70;;
71038;SDS011;58692;43.212;27.908;2022-12-18T06:44:54;19.92;;;8.65;;
71038;SDS011;58692;43.212;27.908;2022-12-18T06:47:19;17.77;;;9.02;;
71038;SDS011;58692;43.212;27.908;2022-12-18T06:49:45;19.70;;;9.30;;
71038;SDS011;58692;43.212;27.908;2022-12-18T06:52:10;22.63;;;10.17;;
71038;SDS011;58692;43.212;27.908;2022-12-18T06:54:36;22.50;;;9.93;;
71038;SDS011;58692;43.212;27.908;2022-12-18T06:57:01;21.20;;;10.33;;
71038;SDS011;58692;43.212;27.908;2022-12-18T06:59:27;23.43;;;10.47;;
71038;SDS011;58692;43.212;27.908;2022-12-18T07:01:52;22.58;;;10.27;;
71038;SDS011;58692;43.212;27.908;2022-12-18T07:04:18;26.00;;;10.93;;
71038;SDS011;58692;43.212;27.908;2022-12-18T07:06:43;23.33;;;11.47;;
71038;SDS011;58692;43.212;27.908;2022-12-18T07:09:09;25.83;;;11.68;;
71038;SDS011;58692;43.212;27.908;2022-12-18T07:11:34;24.57;;;11.67;;
71038;SDS011;58692;43.212;27.908;2022-12-18T07:14:00;22.07;;;10.63;;
71038;SDS011;58692;43.212;27.908;2022-12-18T07:16:25;24.52;;;11.50;;
71038;SDS011;58692;43.212;27.908;2022-12-18T07:18:54;27.83;;;12.07;;
71038;SDS011;58692;43.212;27.908;2022-12-18T07:21:20;28.23;;;12.25;;
71038;SDS011;58692;43.212;27.908;2022-12-18T07:23:46;26.02;;;11.98;;
71038;SDS011;58692;43.212;27.908;2022-12-18T07:26:13;27.10;;;12.27;;
71038;SDS011;58692;43.212;27.908;2022-12-18T07:28:40;26.98;;;12.45;;
71038;SDS011;58692;43.212;27.908;2022-12-18T07:31:07;26.63;;;13.07;;
71038;SDS011;58692;43.212;27.908;2022-12-18T07:33:35;28.98;;;12.52;;
71038;SDS011;58692;43.212;27.908;2022-12-18T07:36:01;26.77;;;12.43;;
71038;SDS011;58692;43.212;27.908;2022-12-18T07:38:28;31.58;;;13.15;;
71038;SDS011;58692;43.212;27.908;2022-12-18T07:40:54;26.08;;;11.48;;
71038;SDS011;58692;43.212;27.908;2022-12-18T07:43:20;28.17;;;12.20;;
71038;SDS011;58692;43.212;27.908;2022-12-18T07:45:48;26.17;;;12.97;;
71038;SDS011;58692;43.212;27.908;2022-12-18T07:48:15;26.10;;;12.45;;
71038;SDS011;58692;43.212;27.908;2022-12-18T07:50:40;29.57;;;12.50;;
71038;SDS011;58692;43.212;27.908;2022-12-18T07:53:06;23.57;;;11.57;;
71038;SDS011;58692;43.212;27.908;2022-12-18T07:55:31;27.17;;;12.52;;
71038;SDS011;58692;43.212;27.908;2022-12-18T07:58:00;31.50;;;14.33;;
71038;SDS011;58692;43.212;27.908;2022-12-18T08:00:26;27.98;;;13.20;;
71038;SDS011;58692;43.212;27.908;2022-12-18T08:02:51;28.33;;;13.77;;
71038;SDS011;58692;43.212;27.908;2022-12-18T08:05:17;29.90;;;13.63;;
71038;SDS011;58692;43.212;27.908;2022-12-18T08:07:42;24.65;;;12.02;;
71038;SDS011;58692;43.212;27.908;2022-12-18T08:10:08;27.30;;;12.90;;
71038;SDS011;58692;43.212;27.908;2022-12-18T08:12:33;27.03;;;13.63;;
71038;SDS011;58692;43.212;27.908;2022-12-18T08:14:59;24.10;;;11.97;;
71038;SDS011;58692;43.212;27.908;2022-12-18T08:17:24;29.40;;;13.57;;
71038;SDS011;58692;43.212;27.908;2022-12-18T08:19:50;27.37;;;13.23;;
71038;SDS011;58692;43.212;27.908;2022-12-18T08:22:15;26.80;;;13.23;;
71038;SDS011;58692;43.212;27.908;2022-12-18T08:24:40;26.27;;;12.17;;
71038;SDS011;58692;43.212;27.908;2022-12-18T08:27:06;31.20;;;12.67;;
71038;SDS011;58692;43.212;27.908;2022-12-18T08:29:31;29.05;;;12.45;;
71038;SDS011;58692;43.212;27.908;2022-12-18T08:31:57;28.70;;;12.57;;
71038;SDS011;58692;43.212;27.908;2022-12-18T08:34:23;25.65;;;12.20;;
71038;SDS011;58692;43.212;27.908;2022-12-18T08:36:48;29.20;;;12.87;;
71038;SDS011;58692;43.212;27.908;2022-12-18T08:39:14;27.13;;;12.47;;
71038;SDS011;58692;43.212;27.908;2022-12-18T08:41:39;27.88;;;12.10;;
71038;SDS011;58692;43.212;27.908;2022-12-18T08:44:06;28.23;;;12.30;;
71038;SDS011;58692;43.212;27.908;2022-12-18T08:46:47;30.55;;;13.82;;
71038;SDS011;58692;43.212;27.908;2022-12-18T08:49:13;28.80;;;13.67;;
71038;SDS011;58692;43.212;27.908;2022-12-18T08:51:39;25.70;;;12.77;;
71038;SDS011;58692;43.212;27.908;2022-12-18T08:54:05;33.47;;;13.95;;
71038;SDS011;58692;43.212;27.908;2022-12-18T08:56:31;31.08;;;14.77;;
71038;SDS011;58692;43.212;27.908;2022-12-18T08:58:56;34.20;;;15.47;;
71038;SDS011;58692;43.212;27.908;2022-12-18T09:01:23;32.88;;;14.82;;
71038;SDS011;58692;43.212;27.908;2022-12-18T09:03:49;32.53;;;15.48;;
71038;SDS011;58692;43.212;27.908;2022-12-18T09:06:19;31.40;;;14.77;;
71038;SDS011;58692;43.212;27.908;2022-12-18T09:08:45;32.93;;;14.20;;
71038;SDS011;58692;43.212;27.908;2022-12-18T09:11:12;30.50;;;13.32;;
71038;SDS011;58692;43.212;27.908;2022-12-18T09:13:40;28.83;;;14.57;;
71038;SDS011;58692;43.212;27.908;2022-12-18T09:16:05;28.90;;;14.07;;
71038;SDS011;58692;43.212;27.908;2022-12-18T09:18:31;34.10;;;14.80;;
71038;SDS011;58692;43.212;27.908;2022-12-18T09:20:56;34.63;;;15.93;;
71038;SDS011;58692;43.212;27.908;2022-12-18T09:23:22;32.70;;;14.17;;
71038;SDS011;58692;43.212;27.908;2022-12-18T09:25:47;32.40;;;14.67;;
71038;SDS011;58692;43.212;27.908;2022-12-18T09:28:14;34.30;;;15.05;;
71038;SDS011;58692;43.212;27.908;2022-12-18T09:30:42;35.75;;;15.65;;
71038;SDS011;58692;43.212;27.908;2022-12-18T09:33:09;37.75;;;14.10;;
71038;SDS011;58692;43.212;27.908;2022-12-18T09:35:36;34.70;;;15.97;;
71038;SDS011;58692;43.212;27.908;2022-12-18T09:38:04;35.30;;;15.82;;
71038;SDS011;58692;43.212;27.908;2022-12-18T09:40:32;36.20;;;16.42;;
71038;SDS011;58692;43.212;27.908;2022-12-18T09:43:03;33.53;;;17.83;;
71038;SDS011;58692;43.212;27.908;2022-12-18T09:45:31;40.28;;;19.02;;
71038;SDS011;58692;43.212;27.908;2022-12-18T09:48:05;37.72;;;17.63;;
71038;SDS011;58692;43.212;27.908;2022-12-18T09:50:42;42.30;;;20.20;;
71038;SDS011;58692;43.212;27.908;2022-12-18T09:53:12;42.92;;;21.35;;
71038;SDS011;58692;43.212;27.908;2022-12-18T09:55:43;36.43;;;17.87;;
71038;SDS011;58692;43.212;27.908;2022-12-18T10:00:37;36.20;;;16.20;;
71038;SDS011;58692;43.212;27.908;2022-12-18T10:03:03;31.88;;;15.57;;
71038;SDS011;58692;43.212;27.908;2022-12-18T10:10:34;36.10;;;17.25;;
71038;SDS011;58692;43.212;27.908;2022-12-18T10:13:39;35.70;;;16.70;;
71038;SDS011;58692;43.212;27.908;2022-12-18T10:18:40;31.88;;;14.63;;
71038;SDS011;58692;43.212;27.908;2022-12-18T10:21:32;34.67;;;14.98;;
71038;SDS011;58692;43.212;27.908;2022-12-18T10:26:51;26.77;;;13.18;;
71038;SDS011;58692;43.212;27.908;2022-12-18T10:29:21;28.60;;;14.27;;
71038;SDS011;58692;43.212;27.908;2022-12-18T10:31:47;30.23;;;14.18;;
71038;SDS011;58692;43.212;27.908;2022-12-18T10:34:13;29.65;;;13.77;;
71038;SDS011;58692;43.212;27.908;2022-12-18T10:36:38;29.97;;;14.50;;
71038;SDS011;58692;43.212;27.908;2022-12-18T10:41:48;30.17;;;14.23;;
71038;SDS011;58692;43.212;27.908;2022-12-18T10:46:44;28.27;;;12.73;;
71038;SDS011;58692;43.212;27.908;2022-12-18T10:49:18;30.58;;;14.82;;
71038;SDS011;58692;43.212;27.908;2022-12-18T10:51:48;28.35;;;14.00;;
71038;SDS011;58692;43.212;27.908;2022-12-18T10:54:16;27.50;;;13.45;;
71038;SDS011;58692;43.212;27.908;2022-12-18T10:56:46;28.90;;;13.65;;
71038;SDS011;58692;43.212;27.908;2022-12-18T10:59:13;26.50;;;12.53;;
71038;SDS011;58692;43.212;27.908;2022-12-18T11:01:48;28.88;;;13.13;;
71038;SDS011;58692;43.212;27.908;2022-12-18T11:04:17;32.30;;;14.63;;
71038;SDS011;58692;43.212;27.908;2022-12-18T11:09:30;29.98;;;13.77;;
71038;SDS011;58692;43.212;27.908;2022-12-18T11:11:59;32.30;;;13.77;;
71038;SDS011;58692;43.212;27.908;2022-12-18T11:14:28;26.13;;;13.02;;
71038;SDS011;58692;43.212;27.908;2022-12-18T11:16:56;32.63;;;14.05;;
71038;SDS011;58692;43.212;27.908;2022-12-18T11:27:39;35.95;;;15.43;;
71038;SDS011;58692;43.212;27.908;2022-12-18T11:30:09;32.85;;;15.52;;
71038;SDS011;58692;43.212;27.908;2022-12-18T11:32:52;30.20;;;14.10;;
71038;SDS011;58692;43.212;27.908;2022-12-18T11:38:12;35.47;;;16.80;;
71038;SDS011;58692;43.212;27.908;2022-12-18T11:40:42;33.90;;;14.52;;
71038;SDS011;58692;43.212;27.908;2022-12-18T11:45:40;34.80;;;15.10;;
71038;SDS011;58692;43.212;27.908;2022-12-18T11:48:23;35.33;;;15.82;;
71038;SDS011;58692;43.212;27.908;2022-12-18T11:50:53;35.47;;;14.93;;
71038;SDS011;58692;43.212;27.908;2022-12-18T11:53:21;36.58;;;15.60;;
71038;SDS011;58692;43.212;27.908;2022-12-18T12:01:05;33.80;;;15.40;;
71038;SDS011;58692;43.212;27.908;2022-12-18T12:03:52;38.10;;;16.77;;
71038;SDS011;58692;43.212;27.908;2022-12-18T12:09:15;31.50;;;14.00;;
71038;SDS011;58692;43.212;27.908;2022-12-18T12:14:12;26.43;;;13.00;;
71038;SDS011;58692;43.212;27.908;2022-12-18T12:16:47;30.45;;;13.10;;
71038;SDS011;58692;43.212;27.908;2022-12-18T12:22:08;29.45;;;12.05;;
71038;SDS011;58692;43.212;27.908;2022-12-18T12:36:13;22.17;;;11.15;;
71038;SDS011;58692;43.212;27.908;2022-12-18T12:38:20;21.75;;;9.25;;
71038;SDS011;58692;43.212;27.908;2022-12-18T12:43:44;19.05;;;9.00;;
71038;SDS011;58692;43.212;27.908;2022-12-18T12:46:09;19.50;;;9.13;;
71038;SDS011;58692;43.212;27.908;2022-12-18T12:51:06;17.83;;;8.85;;
71038;SDS011;58692;43.212;27.908;2022-12-18T12:53:36;18.13;;;8.47;;
71038;SDS011;58692;43.212;27.908;2022-12-18T12:56:04;16.23;;;8.25;;
71038;SDS011;58692;43.212;27.908;2022-12-18T13:01:05;15.02;;;7.65;;
71038;SDS011;58692;43.212;27.908;2022-12-18T13:09:02;11.80;;;6.30;;
71038;SDS011;58692;43.212;27.908;2022-12-18T13:11:37;14.70;;;6.78;;
71038;SDS011;58692;43.212;27.908;2022-12-18T13:14:22;12.90;;;6.60;;
71038;SDS011;58692;43.212;27.908;2022-12-18T13:16:49;12.20;;;6.03;;
71038;SDS011;58692;43.212;27.908;2022-12-18T13:19:22;13.70;;;6.07;;
71038;SDS011;58692;43.212;27.908;2022-12-18T13:21:53;12.48;;;5.45;;
71038;SDS011;58692;43.212;27.908;2022-12-18T13:24:28;10.15;;;5.07;;
71038;SDS011;58692;43.212;27.908;2022-12-18T13:26:57;12.33;;;5.63;;
71038;SDS011;58692;43.212;27.908;2022-12-18T13:29:41;13.07;;;5.63;;
71038;SDS011;58692;43.212;27.908;2022-12-18T13:32:18;14.05;;;5.85;;
71038;SDS011;58692;43.212;27.908;2022-12-18T13:34:47;11.50;;;5.67;;
71038;SDS011;58692;43.212;27.908;2022-12-18T13:40:24;12.75;;;5.22;;
71038;SDS011;58692;43.212;27.908;2022-12-18T13:45:49;14.70;;;6.35;;
71038;SDS011;58692;43.212;27.908;2022-12-18T13:48:31;12.57;;;5.87;;
71038;SDS011;58692;43.212;27.908;2022-12-18T13:51:00;13.43;;;6.22;;
71038;SDS011;58692;43.212;27.908;2022-12-18T13:53:30;14.57;;;6.28;;
71038;SDS011;58692;43.212;27.908;2022-12-18T13:55:59;17.20;;;6.40;;
71038;SDS011;58692;43.212;27.908;2022-12-18T13:58:25;13.87;;;6.93;;
71038;SDS011;58692;43.212;27.908;2022-12-18T14:00:50;17.75;;;6.50;;
71038;SDS011;58692;43.212;27.908;2022-12-18T14:03:17;16.00;;;7.00;;
71038;SDS011;58692;43.212;27.908;2022-12-18T14:05:45;16.92;;;7.68;;
71038;SDS011;58692;43.212;27.908;2022-12-18T14:08:12;14.40;;;6.63;;
71038;SDS011;58692;43.212;27.908;2022-12-18T14:10:41;14.48;;;7.22;;
71038;SDS011;58692;43.212;27.908;2022-12-18T14:13:09;14.75;;;6.32;;
71038;SDS011;58692;43.212;27.908;2022-12-18T14:15:40;13.75;;;6.38;;
71038;SDS011;58692;43.212;27.908;2022-12-18T14:21:15;15.17;;;6.77;;
71038;SDS011;58692;43.212;27.908;2022-12-18T14:23:46;16.60;;;6.30;;
71038;SDS011;58692;43.212;27.908;2022-12-18T14:28:55;13.77;;;6.33;;
71038;SDS011;58692;43.212;27.908;2022-12-18T14:31:23;14.35;;;6.78;;
71038;SDS011;58692;43.212;27.908;2022-12-18T14:33:51;15.80;;;7.00;;
71038;SDS011;58692;43.212;27.908;2022-12-18T14:36:19;14.40;;;6.97;;
71038;SDS011;58692;43.212;27.908;2022-12-18T14:38:49;14.05;;;6.57;;
71038;SDS011;58692;43.212;27.908;2022-12-18T14:41:18;13.03;;;6.57;;
71038;SDS011;58692;43.212;27.908;2022-12-18T14:43:46;14.85;;;7.18;;
71038;SDS011;58692;43.212;27.908;2022-12-18T14:48:54;14.52;;;6.72;;
71038;SDS011;58692;43.212;27.908;2022-12-18T14:51:21;15.93;;;7.55;;
71038;SDS011;58692;43.212;27.908;2022-12-18T14:53:52;17.33;;;8.23;;
71038;SDS011;58692;43.212;27.908;2022-12-18T14:58:49;13.30;;;6.20;;
71038;SDS011;58692;43.212;27.908;2022-12-18T15:01:19;15.23;;;7.18;;
71038;SDS011;58692;43.212;27.908;2022-12-18T15:03:47;14.63;;;7.20;;
71038;SDS011;58692;43.212;27.908;2022-12-18T15:06:15;17.03;;;7.67;;
71038;SDS011;58692;43.212;27.908;2022-12-18T15:08:42;14.93;;;7.22;;
71038;SDS011;58692;43.212;27.908;2022-12-18T15:17:00;15.15;;;6.53;;
71038;SDS011;58692;43.212;27.908;2022-12-18T15:19:34;14.13;;;6.65;;
71038;SDS011;58692;43.212;27.908;2022-12-18T15:22:03;17.02;;;8.13;;
71038;SDS011;58692;43.212;27.908;2022-12-18T15:24:30;15.77;;;7.30;;
71038;SDS011;58692;43.212;27.908;2022-12-18T15:26:57;18.77;;;7.90;;
71038;SDS011;58692;43.212;27.908;2022-12-18T15:29:24;17.83;;;7.43;;
71038;SDS011;58692;43.212;27.908;2022-12-18T15:31:59;16.23;;;7.10;;
71038;SDS011;58692;43.212;27.908;2022-12-18T15:34:26;15.80;;;7.25;;
71038;SDS011;58692;43.212;27.908;2022-12-18T15:36:52;16.80;;;8.18;;
71038;SDS011;58692;43.212;27.908;2022-12-18T15:39:18;16.17;;;7.30;;
71038;SDS011;58692;43.212;27.908;2022-12-18T15:41:43;14.45;;;7.18;;
71038;SDS011;58692;43.212;27.908;2022-12-18T15:44:28;17.73;;;8.13;;
71038;SDS011;58692;43.212;27.908;2022-12-18T15:46:54;17.50;;;8.23;;
71038;SDS011;58692;43.212;27.908;2022-12-18T15:49:19;17.73;;;7.37;;
71038;SDS011;58692;43.212;27.908;2022-12-18T15:51:45;14.93;;;7.38;;
71038;SDS011;58692;43.212;27.908;2022-12-18T15:54:15;14.93;;;7.23;;
71038;SDS011;58692;43.212;27.908;2022-12-18T15:56:41;16.50;;;7.90;;
71038;SDS011;58692;43.212;27.908;2022-12-18T15:59:22;16.73;;;7.10;;
71038;SDS011;58692;43.212;27.908;2022-12-18T16:01:49;14.80;;;6.70;;
71038;SDS011;58692;43.212;27.908;2022-12-18T16:04:18;13.98;;;6.93;;
71038;SDS011;58692;43.212;27.908;2022-12-18T16:06:46;16.45;;;7.07;;
71038;SDS011;58692;43.212;27.908;2022-12-18T16:09:11;16.75;;;8.70;;
71038;SDS011;58692;43.212;27.908;2022-12-18T16:11:37;16.07;;;7.50;;
71038;SDS011;58692;43.212;27.908;2022-12-18T16:16:49;17.83;;;8.23;;
71038;SDS011;58692;43.212;27.908;2022-12-18T16:19:16;15.57;;;7.20;;
71038;SDS011;58692;43.212;27.908;2022-12-18T16:21:43;16.98;;;7.63;;
71038;SDS011;58692;43.212;27.908;2022-12-18T16:24:12;15.07;;;7.50;;